sensor_id;sensor_type;location;lat;lon;timestamp;pressure;altitude;pressure_sealevel;temperature;humidity
9225;BME280;4647;48.072;11.616;2023-03-24T00:01:27;94674.16;;;11.10;68.43
9225;BME280;4647;48.072;11.616;2023-03-24T00:03:56;94671.03;;;11.12;67.57
9225;BME280;4647;48.072;11.616;2023-03-24T00:06:25;94664.28;;;11.03;67.73
9225;BME280;4647;48.072;11.616;2023-03-24T00:08:53;94661.75;;;11.13;67.16
9225;BME280;4647;48.072;11.616;2023-03-24T00:11:22;94670.38;;;11.07;67.63
9225;BME280;4647;48.072;11.616;2023-03-24T00:13:51;94662.44;;;11.00;67.65
9225;BME280;4647;48.072;11.616;2023-03-24T00:16:25;94655.59;;;10.96;67.94
9225;BME280;4647;48.072;11.616;2023-03-24T00:18:54;94647.97;;;10.91;68.02
9225;BME280;4647;48.072;11.616;2023-03-24T00:21:24;94630.28;;;10.86;67.86
9225;BME280;4647;48.072;11.616;2023-03-24T00:23:54;94617.78;;;10.76;67.99
9225;BME280;4647;48.072;11.616;2023-03-24T00:26:24;94627.84;;;10.75;68.82
9225;BME280;4647;48.072;11.616;2023-03-24T00:28:53;94618.72;;;10.69;68.62
9225;BME280;4647;48.072;11.616;2023-03-24T00:31:25;94614.41;;;10.56;69.26
9225;BME280;4647;48.072;11.616;2023-03-24T00:33:53;94609.19;;;10.49;69.59
9225;BME280;4647;48.072;11.616;2023-03-24T00:36:26;94604.28;;;10.43;69.76
9225;BME280;4647;48.072;11.616;2023-03-24T00:38:56;94601.56;;;10.27;70.04
9225;BME280;4647;48.072;11.616;2023-03-24T00:41:25;94582.84;;;10.16;70.40
9225;BME280;4647;48.072;11.616;2023-03-24T00:43:55;94566.88;;;10.06;70.18
9225;BME280;4647;48.072;11.616;2023-03-24T00:46:27;94582.63;;;10.27;70.49
9225;BME280;4647;48.072;11.616;2023-03-24T00:48:58;94588.72;;;10.31;70.08
9225;BME280;4647;48.072;11.616;2023-03-24T00:51:31;94594.56;;;10.30;69.63
9225;BME280;4647;48.072;11.616;2023-03-24T00:54:00;94581.09;;;10.26;69.99
9225;BME280;4647;48.072;11.616;2023-03-24T00:56:31;94576.50;;;10.39;69.38
9225;BME280;4647;48.072;11.616;2023-03-24T00:59:02;94571.28;;;10.32;69.45
9225;BME280;4647;48.072;11.616;2023-03-24T01:01:33;94566.81;;;10.42;68.94
9225;BME280;4647;48.072;11.616;2023-03-24T01:04:04;94576.13;;;10.41;68.94
9225;BME280;4647;48.072;11.616;2023-03-24T01:06:35;94571.94;;;10.36;68.65
9225;BME280;4647;48.072;11.616;2023-03-24T01:09:05;94572.97;;;10.42;68.84
9225;BME280;4647;48.072;11.616;2023-03-24T01:11:37;94574.16;;;10.41;68.89
9225;BME280;4647;48.072;11.616;2023-03-24T01:14:06;94574.56;;;10.40;68.77
9225;BME280;4647;48.072;11.616;2023-03-24T01:16:37;94578.81;;;10.41;68.76
9225;BME280;4647;48.072;11.616;2023-03-24T01:19:06;94579.72;;;10.51;68.21
9225;BME280;4647;48.072;11.616;2023-03-24T01:21:36;94592.75;;;10.56;67.79
9225;BME280;4647;48.072;11.616;2023-03-24T01:24:07;94596.63;;;10.71;67.35
9225;BME280;4647;48.072;11.616;2023-03-24T01:26:38;94596.94;;;10.73;67.37
9225;BME280;4647;48.072;11.616;2023-03-24T01:29:06;94601.81;;;10.65;67.64
9225;BME280;4647;48.072;11.616;2023-03-24T01:31:38;94598.41;;;10.61;67.55
9225;BME280;4647;48.072;11.616;2023-03-24T01:34:06;94592.91;;;10.65;67.76
9225;BME280;4647;48.072;11.616;2023-03-24T01:36:35;94591.88;;;10.75;67.18
9225;BME280;4647;48.072;11.616;2023-03-24T01:39:04;94581.47;;;10.73;66.93
9225;BME280;4647;48.072;11.616;2023-03-24T01:41:36;94582.41;;;10.67;67.48
9225;BME280;4647;48.072;11.616;2023-03-24T01:44:23;94578.41;;;10.71;67.08
9225;BME280;4647;48.072;11.616;2023-03-24T01:46:55;94569.84;;;10.73;67.02
9225;BME280;4647;48.072;11.616;2023-03-24T01:49:27;94553.88;;;10.62;66.86
9225;BME280;4647;48.072;11.616;2023-03-24T01:51:59;94571.84;;;10.56;67.70
9225;BME280;4647;48.072;11.616;2023-03-24T01:54:32;94562.19;;;10.55;67.71
9225;BME280;4647;48.072;11.616;2023-03-24T01:57:06;94555.00;;;10.65;67.62
9225;BME280;4647;48.072;11.616;2023-03-24T01:59:37;94564.44;;;10.73;67.26
9225;BME280;4647;48.072;11.616;2023-03-24T02:02:09;94558.03;;;10.67;67.72
9225;BME280;4647;48.072;11.616;2023-03-24T02:04:41;94563.34;;;10.70;67.85
9225;BME280;4647;48.072;11.616;2023-03-24T02:07:14;94551.03;;;10.82;66.99
9225;BME280;4647;48.072;11.616;2023-03-24T02:09:45;94550.84;;;10.89;66.82
9225;BME280;4647;48.072;11.616;2023-03-24T02:12:14;94537.16;;;10.80;66.91
9225;BME280;4647;48.072;11.616;2023-03-24T02:14:43;94572.44;;;10.93;66.69
9225;BME280;4647;48.072;11.616;2023-03-24T02:17:26;94559.44;;;11.00;66.28
9225;BME280;4647;48.072;11.616;2023-03-24T02:20:27;94571.03;;;11.01;66.26
9225;BME280;4647;48.072;11.616;2023-03-24T02:26:35;94563.47;;;11.08;66.35
9225;BME280;4647;48.072;11.616;2023-03-24T02:29:30;94570.72;;;11.12;66.44
9225;BME280;4647;48.072;11.616;2023-03-24T02:32:33;94569.03;;;11.18;66.24
9225;BME280;4647;48.072;11.616;2023-03-24T02:35:23;94575.44;;;11.24;66.37
9225;BME280;4647;48.072;11.616;2023-03-24T02:38:17;94573.59;;;11.21;66.19
9225;BME280;4647;48.072;11.616;2023-03-24T02:40:56;94569.69;;;11.22;66.33
9225;BME280;4647;48.072;11.616;2023-03-24T02:43:34;94572.28;;;11.25;65.71
9225;BME280;4647;48.072;11.616;2023-03-24T02:46:10;94578.59;;;11.35;65.59
9225;BME280;4647;48.072;11.616;2023-03-24T02:48:48;94574.13;;;11.28;65.56
9225;BME280;4647;48.072;11.616;2023-03-24T02:51:28;94583.34;;;11.31;65.64
9225;BME280;4647;48.072;11.616;2023-03-24T02:54:04;94585.88;;;11.38;65.46
9225;BME280;4647;48.072;11.616;2023-03-24T02:56:42;94576.31;;;11.33;66.12
9225;BME280;4647;48.072;11.616;2023-03-24T02:59:17;94578.94;;;11.37;66.24
9225;BME280;4647;48.072;11.616;2023-03-24T03:01:50;94565.28;;;11.41;66.32
9225;BME280;4647;48.072;11.616;2023-03-24T03:04:25;94559.97;;;11.37;66.94
9225;BME280;4647;48.072;11.616;2023-03-24T03:06:59;94563.53;;;10.92;69.51
9225;BME280;4647;48.072;11.616;2023-03-24T03:09:32;94549.84;;;10.83;69.93
9225;BME280;4647;48.072;11.616;2023-03-24T03:12:07;94538.38;;;10.63;71.11
9225;BME280;4647;48.072;11.616;2023-03-24T03:14:40;94560.34;;;10.81;71.04
9225;BME280;4647;48.072;11.616;2023-03-24T03:17:15;94543.09;;;10.75;71.97
9225;BME280;4647;48.072;11.616;2023-03-24T03:19:49;94544.97;;;10.62;72.24
9225;BME280;4647;48.072;11.616;2023-03-24T03:22:22;94530.03;;;10.57;72.08
9225;BME280;4647;48.072;11.616;2023-03-24T03:24:54;94541.69;;;10.83;71.16
9225;BME280;4647;48.072;11.616;2023-03-24T03:27:29;94531.28;;;10.82;71.75
9225;BME280;4647;48.072;11.616;2023-03-24T03:30:06;94532.63;;;10.61;71.68
9225;BME280;4647;48.072;11.616;2023-03-24T03:32:42;94527.84;;;10.52;72.24
9225;BME280;4647;48.072;11.616;2023-03-24T03:35:21;94528.41;;;10.60;72.08
9225;BME280;4647;48.072;11.616;2023-03-24T03:37:56;94519.13;;;10.73;71.14
9225;BME280;4647;48.072;11.616;2023-03-24T03:40:30;94528.47;;;10.85;70.84
9225;BME280;4647;48.072;11.616;2023-03-24T03:43:05;94525.97;;;10.78;70.97
9225;BME280;4647;48.072;11.616;2023-03-24T03:45:34;94518.91;;;10.68;71.44
9225;BME280;4647;48.072;11.616;2023-03-24T03:48:03;94515.94;;;10.91;70.25
9225;BME280;4647;48.072;11.616;2023-03-24T03:50:32;94510.59;;;10.88;70.14
9225;BME280;4647;48.072;11.616;2023-03-24T03:53:02;94501.22;;;10.92;69.73
9225;BME280;4647;48.072;11.616;2023-03-24T03:55:32;94484.47;;;10.81;70.03
9225;BME280;4647;48.072;11.616;2023-03-24T03:58:01;94483.59;;;10.84;70.28
9225;BME280;4647;48.072;11.616;2023-03-24T04:00:33;94464.00;;;10.80;70.13
9225;BME280;4647;48.072;11.616;2023-03-24T04:03:15;94478.72;;;10.79;71.20
9225;BME280;4647;48.072;11.616;2023-03-24T04:05:52;94466.91;;;10.73;71.77
9225;BME280;4647;48.072;11.616;2023-03-24T04:08:33;94454.84;;;10.61;72.28
9225;BME280;4647;48.072;11.616;2023-03-24T04:11:19;94457.53;;;10.49;72.57
9225;BME280;4647;48.072;11.616;2023-03-24T04:14:00;94451.16;;;10.26;72.71
9225;BME280;4647;48.072;11.616;2023-03-24T04:16:40;94446.31;;;10.34;72.41
9225;BME280;4647;48.072;11.616;2023-03-24T04:19:23;94453.81;;;10.42;72.26
9225;BME280;4647;48.072;11.616;2023-03-24T04:22:09;94441.56;;;10.38;72.36
9225;BME280;4647;48.072;11.616;2023-03-24T04:24:49;94461.69;;;10.37;72.69
9225;BME280;4647;48.072;11.616;2023-03-24T04:27:24;94457.53;;;10.49;72.45
9225;BME280;4647;48.072;11.616;2023-03-24T04:30:02;94450.16;;;10.49;71.69
9225;BME280;4647;48.072;11.616;2023-03-24T04:32:40;94452.88;;;10.62;70.94
9225;BME280;4647;48.072;11.616;2023-03-24T04:35:19;94459.53;;;10.73;70.86
9225;BME280;4647;48.072;11.616;2023-03-24T04:37:57;94462.78;;;10.81;70.47
9225;BME280;4647;48.072;11.616;2023-03-24T04:40:30;94468.88;;;10.85;70.29
9225;BME280;4647;48.072;11.616;2023-03-24T04:43:03;94451.00;;;10.88;70.58
9225;BME280;4647;48.072;11.616;2023-03-24T04:45:34;94460.09;;;10.81;70.57
9225;BME280;4647;48.072;11.616;2023-03-24T04:48:07;94443.56;;;10.63;71.21
9225;BME280;4647;48.072;11.616;2023-03-24T04:50:39;94455.59;;;10.62;71.62
9225;BME280;4647;48.072;11.616;2023-03-24T04:53:10;94450.19;;;10.62;71.49
9225;BME280;4647;48.072;11.616;2023-03-24T04:55:53;94453.59;;;10.79;70.89
9225;BME280;4647;48.072;11.616;2023-03-24T04:58:24;94455.84;;;10.80;70.63
9225;BME280;4647;48.072;11.616;2023-03-24T05:00:54;94462.25;;;10.86;70.60
9225;BME280;4647;48.072;11.616;2023-03-24T05:03:26;94447.06;;;10.76;70.51
9225;BME280;4647;48.072;11.616;2023-03-24T05:05:54;94456.97;;;10.95;69.93
9225;BME280;4647;48.072;11.616;2023-03-24T05:08:23;94449.28;;;11.06;69.97
9225;BME280;4647;48.072;11.616;2023-03-24T05:10:52;94445.44;;;10.79;70.35
9225;BME280;4647;48.072;11.616;2023-03-24T05:13:20;94460.34;;;10.99;70.03
9225;BME280;4647;48.072;11.616;2023-03-24T05:15:48;94466.44;;;11.16;69.02
9225;BME280;4647;48.072;11.616;2023-03-24T05:18:17;94482.28;;;11.18;68.93
9225;BME280;4647;48.072;11.616;2023-03-24T05:20:48;94480.84;;;11.26;69.20
9225;BME280;4647;48.072;11.616;2023-03-24T05:23:18;94475.88;;;11.37;68.36
9225;BME280;4647;48.072;11.616;2023-03-24T05:25:46;94488.44;;;11.31;68.71
9225;BME280;4647;48.072;11.616;2023-03-24T05:28:15;94490.41;;;11.30;69.47
9225;BME280;4647;48.072;11.616;2023-03-24T05:30:44;94490.63;;;11.36;69.06
9225;BME280;4647;48.072;11.616;2023-03-24T05:33:13;94487.25;;;11.19;70.07
9225;BME280;4647;48.072;11.616;2023-03-24T05:35:42;94497.34;;;11.19;69.90
9225;BME280;4647;48.072;11.616;2023-03-24T05:38:15;94497.00;;;11.29;70.05
9225;BME280;4647;48.072;11.616;2023-03-24T05:40:43;94485.09;;;11.27;69.79
9225;BME280;4647;48.072;11.616;2023-03-24T05:43:12;94509.94;;;11.38;70.55
9225;BME280;4647;48.072;11.616;2023-03-24T05:45:41;94493.25;;;11.40;70.60
9225;BME280;4647;48.072;11.616;2023-03-24T05:48:11;94506.56;;;11.34;69.80
9225;BME280;4647;48.072;11.616;2023-03-24T05:50:40;94495.50;;;11.28;69.92
9225;BME280;4647;48.072;11.616;2023-03-24T05:53:09;94508.19;;;11.57;69.49
9225;BME280;4647;48.072;11.616;2023-03-24T05:55:40;94502.78;;;11.44;69.18
9225;BME280;4647;48.072;11.616;2023-03-24T05:58:09;94506.03;;;11.64;69.40
9225;BME280;4647;48.072;11.616;2023-03-24T06:00:37;94499.53;;;11.36;69.63
9225;BME280;4647;48.072;11.616;2023-03-24T06:03:05;94514.94;;;11.52;69.48
9225;BME280;4647;48.072;11.616;2023-03-24T06:05:34;94503.75;;;11.63;69.40
9225;BME280;4647;48.072;11.616;2023-03-24T06:08:03;94504.19;;;11.61;69.51
9225;BME280;4647;48.072;11.616;2023-03-24T06:10:34;94498.97;;;11.67;69.46
9225;BME280;4647;48.072;11.616;2023-03-24T06:13:05;94503.66;;;11.79;69.24
9225;BME280;4647;48.072;11.616;2023-03-24T06:15:34;94502.22;;;11.75;68.75
9225;BME280;4647;48.072;11.616;2023-03-24T06:18:03;94486.25;;;11.77;69.11
9225;BME280;4647;48.072;11.616;2023-03-24T06:20:38;94489.63;;;11.93;68.57
9225;BME280;4647;48.072;11.616;2023-03-24T06:23:07;94486.25;;;12.02;69.05
9225;BME280;4647;48.072;11.616;2023-03-24T06:25:35;94476.38;;;11.95;69.25
9225;BME280;4647;48.072;11.616;2023-03-24T06:28:11;94463.25;;;11.94;70.46
9225;BME280;4647;48.072;11.616;2023-03-24T06:30:42;94455.84;;;12.07;69.90
9225;BME280;4647;48.072;11.616;2023-03-24T06:33:11;94448.06;;;12.31;69.18
9225;BME280;4647;48.072;11.616;2023-03-24T06:35:39;94450.16;;;12.14;68.33
9225;BME280;4647;48.072;11.616;2023-03-24T06:38:08;94456.41;;;12.24;68.04
9225;BME280;4647;48.072;11.616;2023-03-24T06:40:37;94446.31;;;12.24;67.15
9225;BME280;4647;48.072;11.616;2023-03-24T06:43:05;94466.00;;;12.50;67.31
9225;BME280;4647;48.072;11.616;2023-03-24T06:45:36;94462.50;;;12.50;67.82
9225;BME280;4647;48.072;11.616;2023-03-24T06:48:05;94456.09;;;12.56;67.26
9225;BME280;4647;48.072;11.616;2023-03-24T06:50:34;94452.81;;;12.62;66.63
9225;BME280;4647;48.072;11.616;2023-03-24T06:53:03;94440.69;;;12.19;68.04
9225;BME280;4647;48.072;11.616;2023-03-24T06:55:31;94457.34;;;12.43;66.92
9225;BME280;4647;48.072;11.616;2023-03-24T06:57:59;94448.44;;;12.64;66.46
9225;BME280;4647;48.072;11.616;2023-03-24T07:00:29;94435.03;;;12.70;65.54
9225;BME280;4647;48.072;11.616;2023-03-24T07:03:01;94463.91;;;12.76;65.41
9225;BME280;4647;48.072;11.616;2023-03-24T07:05:30;94442.72;;;12.49;65.99
9225;BME280;4647;48.072;11.616;2023-03-24T07:07:58;94452.47;;;12.38;66.72
9225;BME280;4647;48.072;11.616;2023-03-24T07:10:27;94464.72;;;12.42;66.59
9225;BME280;4647;48.072;11.616;2023-03-24T07:12:55;94457.38;;;12.52;66.57
9225;BME280;4647;48.072;11.616;2023-03-24T07:15:26;94465.88;;;12.54;66.64
9225;BME280;4647;48.072;11.616;2023-03-24T07:17:54;94469.34;;;12.76;65.68
9225;BME280;4647;48.072;11.616;2023-03-24T07:20:25;94480.56;;;12.78;65.99
9225;BME280;4647;48.072;11.616;2023-03-24T07:22:55;94488.56;;;12.82;65.78
9225;BME280;4647;48.072;11.616;2023-03-24T07:25:23;94486.91;;;12.63;66.39
9225;BME280;4647;48.072;11.616;2023-03-24T07:27:53;94486.75;;;12.57;66.88
9225;BME280;4647;48.072;11.616;2023-03-24T07:30:22;94469.28;;;12.45;66.56
9225;BME280;4647;48.072;11.616;2023-03-24T07:32:51;94491.84;;;12.55;66.78
9225;BME280;4647;48.072;11.616;2023-03-24T07:35:19;94492.53;;;12.68;66.87
9225;BME280;4647;48.072;11.616;2023-03-24T07:37:50;94507.81;;;12.53;68.20
9225;BME280;4647;48.072;11.616;2023-03-24T07:40:19;94503.97;;;12.28;67.72
9225;BME280;4647;48.072;11.616;2023-03-24T07:42:48;94538.44;;;12.32;68.88
9225;BME280;4647;48.072;11.616;2023-03-24T07:45:16;94546.28;;;12.17;68.11
9225;BME280;4647;48.072;11.616;2023-03-24T07:47:46;94564.28;;;12.23;68.60
9225;BME280;4647;48.072;11.616;2023-03-24T07:50:14;94555.94;;;12.18;68.98
9225;BME280;4647;48.072;11.616;2023-03-24T07:52:46;94547.78;;;12.31;67.99
9225;BME280;4647;48.072;11.616;2023-03-24T07:55:18;94548.81;;;12.46;67.07
9225;BME280;4647;48.072;11.616;2023-03-24T07:57:49;94544.44;;;12.61;66.98
9225;BME280;4647;48.072;11.616;2023-03-24T08:00:20;94565.34;;;12.73;66.10
9225;BME280;4647;48.072;11.616;2023-03-24T08:02:50;94560.81;;;12.92;64.94
9225;BME280;4647;48.072;11.616;2023-03-24T08:05:21;94561.66;;;13.02;64.25
9225;BME280;4647;48.072;11.616;2023-03-24T08:07:51;94566.13;;;12.96;64.61
9225;BME280;4647;48.072;11.616;2023-03-24T08:10:27;94556.34;;;12.98;63.41
9225;BME280;4647;48.072;11.616;2023-03-24T08:12:57;94560.13;;;13.01;63.62
9225;BME280;4647;48.072;11.616;2023-03-24T08:15:26;94566.94;;;13.18;62.52
9225;BME280;4647;48.072;11.616;2023-03-24T08:17:54;94570.84;;;13.39;61.88
9225;BME280;4647;48.072;11.616;2023-03-24T08:20:23;94570.66;;;13.64;60.45
9225;BME280;4647;48.072;11.616;2023-03-24T08:22:54;94554.31;;;13.95;59.78
9225;BME280;4647;48.072;11.616;2023-03-24T08:25:26;94569.41;;;14.36;58.69
9225;BME280;4647;48.072;11.616;2023-03-24T08:27:54;94570.84;;;14.78;57.42
9225;BME280;4647;48.072;11.616;2023-03-24T08:30:24;94572.69;;;15.17;56.62
9225;BME280;4647;48.072;11.616;2023-03-24T08:32:55;94579.00;;;15.32;56.03
9225;BME280;4647;48.072;11.616;2023-03-24T08:35:26;94580.53;;;15.43;55.73
9225;BME280;4647;48.072;11.616;2023-03-24T08:37:55;94577.59;;;15.55;55.82
9225;BME280;4647;48.072;11.616;2023-03-24T08:40:28;94581.72;;;15.60;55.94
9225;BME280;4647;48.072;11.616;2023-03-24T08:43:00;94581.84;;;15.56;55.25
9225;BME280;4647;48.072;11.616;2023-03-24T08:45:31;94543.56;;;15.23;55.34
9225;BME280;4647;48.072;11.616;2023-03-24T08:48:01;94563.72;;;15.26;55.72
9225;BME280;4647;48.072;11.616;2023-03-24T08:50:33;94594.94;;;15.43;56.33
9225;BME280;4647;48.072;11.616;2023-03-24T08:53:02;94593.13;;;15.22;56.27
9225;BME280;4647;48.072;11.616;2023-03-24T08:55:34;94603.59;;;15.14;56.58
9225;BME280;4647;48.072;11.616;2023-03-24T08:58:06;94605.28;;;14.93;57.40
9225;BME280;4647;48.072;11.616;2023-03-24T09:00:34;94590.56;;;14.82;58.26
9225;BME280;4647;48.072;11.616;2023-03-24T09:03:03;94615.13;;;14.91;58.17
9225;BME280;4647;48.072;11.616;2023-03-24T09:05:32;94594.03;;;14.82;58.43
9225;BME280;4647;48.072;11.616;2023-03-24T09:08:00;94612.38;;;14.82;58.29
9225;BME280;4647;48.072;11.616;2023-03-24T09:10:29;94605.69;;;14.83;58.40
9225;BME280;4647;48.072;11.616;2023-03-24T09:13:00;94608.09;;;14.62;58.85
9225;BME280;4647;48.072;11.616;2023-03-24T09:15:28;94601.78;;;14.93;58.61
9225;BME280;4647;48.072;11.616;2023-03-24T09:17:57;94602.38;;;15.15;57.21
9225;BME280;4647;48.072;11.616;2023-03-24T09:20:26;94597.81;;;14.85;57.80
9225;BME280;4647;48.072;11.616;2023-03-24T09:22:55;94615.41;;;15.11;57.78
9225;BME280;4647;48.072;11.616;2023-03-24T09:25:23;94608.91;;;14.99;57.21
9225;BME280;4647;48.072;11.616;2023-03-24T09:27:52;94613.00;;;14.95;57.93
9225;BME280;4647;48.072;11.616;2023-03-24T09:30:24;94614.50;;;15.05;58.16
9225;BME280;4647;48.072;11.616;2023-03-24T09:32:55;94611.78;;;15.14;58.10
9225;BME280;4647;48.072;11.616;2023-03-24T09:35:25;94618.91;;;15.02;59.43
9225;BME280;4647;48.072;11.616;2023-03-24T09:37:54;94623.91;;;15.31;58.27
9225;BME280;4647;48.072;11.616;2023-03-24T09:40:25;94629.81;;;15.12;59.02
9225;BME280;4647;48.072;11.616;2023-03-24T09:42:56;94633.75;;;14.92;60.39
9225;BME280;4647;48.072;11.616;2023-03-24T09:45:33;94636.19;;;15.09;59.97
9225;BME280;4647;48.072;11.616;2023-03-24T09:48:09;94634.88;;;14.46;61.30
9225;BME280;4647;48.072;11.616;2023-03-24T09:50:44;94654.25;;;14.17;62.02
9225;BME280;4647;48.072;11.616;2023-03-24T09:53:23;94648.56;;;13.71;65.52
9225;BME280;4647;48.072;11.616;2023-03-24T09:55:57;94650.06;;;13.63;67.43
9225;BME280;4647;48.072;11.616;2023-03-24T09:58:30;94625.06;;;12.99;68.93
9225;BME280;4647;48.072;11.616;2023-03-24T10:01:02;94651.56;;;13.20;69.36
9225;BME280;4647;48.072;11.616;2023-03-24T10:03:31;94665.38;;;13.26;68.62
9225;BME280;4647;48.072;11.616;2023-03-24T10:06:04;94644.69;;;13.15;69.55
9225;BME280;4647;48.072;11.616;2023-03-24T10:08:37;94671.47;;;13.17;69.45
9225;BME280;4647;48.072;11.616;2023-03-24T10:11:14;94666.91;;;13.27;71.04
9225;BME280;4647;48.072;11.616;2023-03-24T10:13:53;94675.75;;;13.40;70.35
9225;BME280;4647;48.072;11.616;2023-03-24T10:16:34;94677.31;;;13.72;70.56
9225;BME280;4647;48.072;11.616;2023-03-24T10:19:16;94684.88;;;13.68;70.47
9225;BME280;4647;48.072;11.616;2023-03-24T10:21:54;94679.63;;;13.51;71.09
9225;BME280;4647;48.072;11.616;2023-03-24T10:24:29;94673.84;;;13.71;70.30
9225;BME280;4647;48.072;11.616;2023-03-24T10:27:02;94693.31;;;13.92;70.18
9225;BME280;4647;48.072;11.616;2023-03-24T10:29:35;94695.06;;;13.76;70.69
9225;BME280;4647;48.072;11.616;2023-03-24T10:32:14;94690.13;;;13.84;69.58
9225;BME280;4647;48.072;11.616;2023-03-24T10:34:46;94689.38;;;14.14;70.21
9225;BME280;4647;48.072;11.616;2023-03-24T10:37:16;94692.22;;;13.80;70.02
9225;BME280;4647;48.072;11.616;2023-03-24T10:39:44;94691.91;;;13.78;70.90
9225;BME280;4647;48.072;11.616;2023-03-24T10:42:16;94694.44;;;13.50;70.91
9225;BME280;4647;48.072;11.616;2023-03-24T10:44:47;94690.19;;;13.49;70.71
9225;BME280;4647;48.072;11.616;2023-03-24T10:47:23;94698.09;;;13.57;70.73
9225;BME280;4647;48.072;11.616;2023-03-24T10:49:54;94689.84;;;13.91;68.44
9225;BME280;4647;48.072;11.616;2023-03-24T10:52:25;94696.69;;;14.27;67.21
9225;BME280;4647;48.072;11.616;2023-03-24T10:54:55;94699.19;;;14.43;66.25
9225;BME280;4647;48.072;11.616;2023-03-24T10:57:24;94694.16;;;14.41;66.41
9225;BME280;4647;48.072;11.616;2023-03-24T10:59:55;94701.16;;;14.11;65.92
9225;BME280;4647;48.072;11.616;2023-03-24T11:02:29;94715.56;;;13.90;66.70
9225;BME280;4647;48.072;11.616;2023-03-24T11:04:59;94714.69;;;13.71;66.38
9225;BME280;4647;48.072;11.616;2023-03-24T11:07:32;94713.59;;;13.47;69.49
9225;BME280;4647;48.072;11.616;2023-03-24T11:10:06;94712.94;;;13.21;69.08
9225;BME280;4647;48.072;11.616;2023-03-24T11:12:37;94707.31;;;13.03;70.64
9225;BME280;4647;48.072;11.616;2023-03-24T11:15:15;94708.59;;;13.11;70.92
9225;BME280;4647;48.072;11.616;2023-03-24T11:17:52;94704.00;;;13.20;70.09
9225;BME280;4647;48.072;11.616;2023-03-24T11:20:26;94699.16;;;13.37;69.79
9225;BME280;4647;48.072;11.616;2023-03-24T11:22:58;94698.78;;;13.26;70.39
9225;BME280;4647;48.072;11.616;2023-03-24T11:25:28;94702.72;;;13.47;69.79
9225;BME280;4647;48.072;11.616;2023-03-24T11:27:59;94694.53;;;13.47;69.75
9225;BME280;4647;48.072;11.616;2023-03-24T11:30:32;94705.78;;;13.02;70.78
9225;BME280;4647;48.072;11.616;2023-03-24T11:33:04;94707.75;;;13.01;72.19
9225;BME280;4647;48.072;11.616;2023-03-24T11:35:33;94706.25;;;12.75;73.96
9225;BME280;4647;48.072;11.616;2023-03-24T11:38:05;94690.38;;;12.73;74.58
9225;BME280;4647;48.072;11.616;2023-03-24T11:40:33;94674.69;;;13.03;75.04
9225;BME280;4647;48.072;11.616;2023-03-24T11:43:02;94653.66;;;13.38;73.44
9225;BME280;4647;48.072;11.616;2023-03-24T11:45:36;94640.44;;;14.02;71.85
9225;BME280;4647;48.072;11.616;2023-03-24T11:48:23;94621.47;;;14.88;68.02
9225;BME280;4647;48.072;11.616;2023-03-24T11:50:54;94628.16;;;15.42;65.58
9225;BME280;4647;48.072;11.616;2023-03-24T11:53:26;94619.78;;;15.45;65.59
9225;BME280;4647;48.072;11.616;2023-03-24T11:56:01;94626.00;;;15.55;65.24
9225;BME280;4647;48.072;11.616;2023-03-24T11:58:36;94610.41;;;15.64;64.17
9225;BME280;4647;48.072;11.616;2023-03-24T12:01:11;94606.72;;;16.19;62.74
9225;BME280;4647;48.072;11.616;2023-03-24T12:03:56;94608.94;;;16.63;61.84
9225;BME280;4647;48.072;11.616;2023-03-24T12:06:33;94622.69;;;16.44;61.06
9225;BME280;4647;48.072;11.616;2023-03-24T12:09:12;94615.13;;;16.72;60.61
9225;BME280;4647;48.072;11.616;2023-03-24T12:12:02;94616.84;;;17.08;60.59
9225;BME280;4647;48.072;11.616;2023-03-24T12:14:46;94623.84;;;17.09;60.57
9225;BME280;4647;48.072;11.616;2023-03-24T12:17:22;94634.72;;;17.18;59.55
9225;BME280;4647;48.072;11.616;2023-03-24T12:20:07;94627.59;;;17.50;59.29
9225;BME280;4647;48.072;11.616;2023-03-24T12:22:49;94628.28;;;17.60;58.26
9225;BME280;4647;48.072;11.616;2023-03-24T12:25:41;94610.41;;;17.50;59.12
9225;BME280;4647;48.072;11.616;2023-03-24T12:28:28;94609.28;;;17.57;59.10
9225;BME280;4647;48.072;11.616;2023-03-24T12:31:07;94608.13;;;17.48;58.63
9225;BME280;4647;48.072;11.616;2023-03-24T12:33:48;94606.47;;;17.51;58.71
9225;BME280;4647;48.072;11.616;2023-03-24T12:36:33;94599.44;;;17.50;57.31
9225;BME280;4647;48.072;11.616;2023-03-24T12:39:08;94598.28;;;17.12;58.50
9225;BME280;4647;48.072;11.616;2023-03-24T12:42:05;94591.53;;;16.75;58.87
9225;BME280;4647;48.072;11.616;2023-03-24T12:48:18;94605.16;;;15.85;62.26
9225;BME280;4647;48.072;11.616;2023-03-24T12:50:58;94608.81;;;15.82;62.31
9225;BME280;4647;48.072;11.616;2023-03-24T12:53:44;94606.16;;;16.06;62.10
9225;BME280;4647;48.072;11.616;2023-03-24T12:56:22;94611.31;;;16.04;62.94
9225;BME280;4647;48.072;11.616;2023-03-24T12:58:56;94614.44;;;16.20;63.14
9225;BME280;4647;48.072;11.616;2023-03-24T13:01:30;94610.25;;;16.43;62.91
9225;BME280;4647;48.072;11.616;2023-03-24T13:04:06;94614.34;;;16.72;61.62
9225;BME280;4647;48.072;11.616;2023-03-24T13:06:39;94611.59;;;16.81;61.76
9225;BME280;4647;48.072;11.616;2023-03-24T13:09:20;94612.31;;;17.05;60.88
9225;BME280;4647;48.072;11.616;2023-03-24T13:11:54;94621.31;;;17.21;60.03
9225;BME280;4647;48.072;11.616;2023-03-24T13:14:28;94618.13;;;17.37;59.80
9225;BME280;4647;48.072;11.616;2023-03-24T13:17:03;94610.22;;;17.39;59.19
9225;BME280;4647;48.072;11.616;2023-03-24T13:19:34;94619.22;;;17.15;59.49
9225;BME280;4647;48.072;11.616;2023-03-24T13:22:05;94608.91;;;16.39;62.38
9225;BME280;4647;48.072;11.616;2023-03-24T13:24:42;94617.16;;;15.78;65.49
9225;BME280;4647;48.072;11.616;2023-03-24T13:27:14;94619.06;;;15.26;67.43
9225;BME280;4647;48.072;11.616;2023-03-24T13:30:02;94618.75;;;14.29;70.45
9225;BME280;4647;48.072;11.616;2023-03-24T13:32:35;94614.34;;;13.92;74.33
9225;BME280;4647;48.072;11.616;2023-03-24T13:35:12;94592.81;;;14.16;73.35
9225;BME280;4647;48.072;11.616;2023-03-24T13:37:46;94581.66;;;14.32;71.44
9225;BME280;4647;48.072;11.616;2023-03-24T13:40:23;94595.09;;;14.17;71.13
9225;BME280;4647;48.072;11.616;2023-03-24T13:42:53;94586.88;;;14.08;70.73
9225;BME280;4647;48.072;11.616;2023-03-24T13:45:41;94588.03;;;13.89;70.40
9225;BME280;4647;48.072;11.616;2023-03-24T13:48:20;94557.72;;;13.46;70.24